x

Ilm2 - 5 Miles Se Of Wrightsville Beach, Nc (41038) Weather Station

12:08 - Fri 23rd Jun 2017 All times are EDT. -4 hours from GMT.

  • Wind
    13mph, 20mph gusts
  • Sea Temp 79°f
  • Ar Temp 80°f
  • Sea Pressure 1016.9mb
  • Ilm2 - 5 Miles Se Of Wrightsville Beach, Nc
  • Ilm2 - 5 Miles Se Of Wrightsville Beach, Nc

More Historic Weather Station data

Upgrade to MSW Pro to gain access to the past 30 days of data for over 8000 Wavebouys and Weather Stations around the globe.

Join Pro

Comparision Forecast

View Surf forecast
   
Sex 06/23 12:08 13 20 mph 1016.9mb 79f 80f
11:08 11 20 mph 1017mb 79f 81f
10:08 9 16 mph 1017.1mb 79f 80f
9:08 9 16 mph 1017.4mb 79f 80f
8:08 13 20 mph 1016.9mb 79f 80f
7:08 13 18 mph 1016.5mb 79f 80f
6:08 11 16 mph 1016.8mb 79f 80f
5:08 11 18 mph 1016.4mb 79f 80f
4:08 9 16 mph 1016.7mb 79f 80f
2:08 9 16 mph 1017.6mb 79f 80f
1:08 9 16 mph 1018.1mb 79f 80f
12:08 11 16 mph 1018.5mb 79f 80f
Qui 06/22 11:08 9 13 mph 1018.2mb 79f 80f
10:08 9 13 mph 1018.4mb 79f 80f
9:08 9 16 mph 1018.2mb 79f 80f
8:08 9 13 mph 1018mb 80f 80f
7:08  -  4 mph 1018mb 79f 79f
6:08 2 7 mph 1018mb 79f 80f
5:08 4 7 mph 1018.4mb 79f 80f
4:08 7 9 mph 1018.5mb 79f 79f
3:08 4 9 mph 1018.7mb 79f 79f
2:08 9 16 mph 1019.4mb 79f 80f
1:08 9 11 mph 1019.4mb 79f 80f
12:08 7 9 mph 1019.7mb 79f 80f
11:08 4 7 mph 1019.7mb 78f 80f
10:08 4 7 mph 1019.5mb 79f 79f
9:08 4 7 mph 1019.4mb 78f 79f
8:08 2 4 mph 1019.4mb 78f 78f
7:08 4 7 mph 1019mb 78f 78f
6:08 4 9 mph 1018.7mb 78f 78f
5:08 9 13 mph 1018.4mb 78f 78f
4:08 7 11 mph 1018.5mb 78f 79f
3:08 9 13 mph 1018.5mb 78f 79f
2:08 9 16 mph 1018.7mb 78f 79f
1:08 7 9 mph 1018.9mb 78f 79f
12:08 9 11 mph 1019.2mb 78f 79f
Qua 06/21 11:08 7 11 mph 1019.4mb 78f 79f
10:08 9 11 mph 1019.3mb 78f 79f
9:08 9 13 mph 1019.2mb 78f 78f
8:08 7 11 mph 1019.1mb 78f 78f
7:08 9 13 mph 1018.8mb 78f 78f
6:08 7 11 mph 1018.5mb 78f 77f
5:08 7 9 mph 1018.7mb 78f 77f
4:08 7 11 mph 1018.9mb 78f 76f
3:08 4 7 mph 1018.9mb 78f 76f
2:08 2 7 mph 1019.7mb 78f 76f
1:08 4 7 mph 1020.4mb 78f 75f
12:08 9 16 mph 1020.7mb 78f 75f
11:08 13 18 mph 1020.4mb 78f 75f
10:08 9 13 mph 1020.7mb 78f 76f
9:08 11 18 mph 1020.6mb 78f 74f
8:08 13 20 mph 1019.4mb 78f 74f
7:08 11 16 mph 1018.9mb 78f 75f
6:08 9 13 mph 1018.3mb 78f 74f
5:08 11 16 mph 1018.2mb 78f 75f
4:08 7 13 mph 1017.9mb 78f 76f
3:08 4 9 mph 1018.2mb 78f 77f
2:08 2 4 mph 1018.7mb 78f 77f
1:08 2 4 mph 1019mb 78f 77f
12:08 2 7 mph 1019.6mb 78f 77f
Ter 06/20 11:08 2 4 mph 1019.2mb 78f 77f
10:08 2 4 mph 1019.4mb 78f 77f
9:08 2 4 mph 1018.8mb 78f 78f
8:08 2 4 mph 1019.6mb 78f 78f
7:08 4 7 mph 1019.4mb 78f 78f
6:08 4 9 mph 1018.8mb 78f 78f
5:08 7 11 mph 1018.1mb 78f 78f
4:08 9 13 mph 1018mb 78f 80f
3:08 2 7 mph 1018.1mb 78f 80f
2:08 9 13 mph 1019.9mb 78f 78f
1:08 16 27 mph 1018.9mb 78f 75f
12:08 11 18 mph 1018.6mb 78f 74f
11:08 11 18 mph 1018.7mb 78f 79f
10:08 9 13 mph 1018.9mb 78f 78f
9:08 11 16 mph 1019.1mb 78f 78f
8:08 11 18 mph 1018mb 78f 79f
7:08 11 20 mph 1017.7mb 77f 79f
6:08 9 16 mph 1017.4mb 78f 79f
5:08 11 16 mph 1017.5mb 77f 79f
4:08 11 18 mph 1017.2mb 77f 79f
3:08 13 20 mph 1017.3mb 77f 79f
2:08 11 16 mph 1017.4mb 77f 79f
1:08 11 16 mph 1018mb 77f 79f
12:08 11 18 mph 1018mb 77f 79f
Seg 06/19 11:08 11 20 mph 1017.9mb 78f 79f
10:08 13 22 mph 1017.4mb 78f 79f
9:08 13 22 mph 1017.3mb 78f 79f
8:08 13 27 mph 1016.6mb 78f 79f
7:08 13 25 mph 1016.1mb 78f 80f
6:08 13 22 mph 1016.1mb 78f 80f